Time;durP1;ratioP1;P1;durP2;ratioP2;P2;SDS_P1;SDS_P2;PMS_P1;PMS_P2;Temp;Humidity;BMP_temperature;BMP_pressure;BME280_temperature;BME280_humidity;BME280_pressure;Samples;Min_cycle;Max_cycle;Signal;HPM_P1;HPM_P2
2022/07/12 00:00:57;;;;;;;;;;;22.20;93.60;;;;;;5103091;28;19903;-91
2022/07/12 00:03:23;;;;;;;;;;;22.20;93.80;;;;;;5103152;28;19998;-91
2022/07/12 00:05:49;;;;;;;;;;;22.20;93.70;;;;;;5102958;28;19907;-90
2022/07/12 00:08:15;;;;;;;;;;;22.20;93.60;;;;;;5102553;28;20001;-91
2022/07/12 00:10:40;;;;;;;;;;;22.20;93.70;;;;;;5102933;28;19904;-91
2022/07/12 00:13:06;;;;;;;;;;;22.20;93.70;;;;;;5102676;28;19964;-91
2022/07/12 00:15:32;;;;;;;;;;;22.20;93.60;;;;;;5120261;28;19904;-91
2022/07/12 00:17:57;;;;;;;;;;;22.20;93.60;;;;;;5102373;28;20197;-91
2022/07/12 00:20:23;;;;;;;;;;;22.20;93.60;;;;;;5101275;28;19903;-91
2022/07/12 00:22:49;;;;;;;;;;;22.20;93.70;;;;;;5103182;28;19954;-91
2022/07/12 00:25:15;;;;;;;;;;;22.20;94.00;;;;;;5119578;28;20227;-91
2022/07/12 00:27:40;;;;;;;;;;;22.10;93.60;;;;;;5119656;28;19907;-91
2022/07/12 00:30:06;;;;;;;;;;;22.10;93.60;;;;;;5102306;28;19999;-91
2022/07/12 00:32:32;;;;;;;;;;;22.10;93.60;;;;;;5101750;28;19903;-91
2022/07/12 00:34:58;;;;;;;;;;;22.10;93.70;;;;;;5101709;28;19908;-91
2022/07/12 00:37:24;;;;;;;;;;;22.10;93.70;;;;;;5101326;28;20218;-91
2022/07/12 00:39:50;;;;;;;;;;;22.10;93.70;;;;;;5101139;28;19903;-91
2022/07/12 00:42:15;;;;;;;;;;;22.10;93.80;;;;;;5119809;28;19980;-91
2022/07/12 00:44:42;;;;;;;;;;;22.10;93.80;;;;;;5101884;28;19919;-91
2022/07/12 00:47:07;;;;;;;;;;;22.00;93.70;;;;;;5101471;28;20301;-91
2022/07/12 00:49:33;;;;;;;;;;;22.00;93.70;;;;;;5102051;28;19935;-91
2022/07/12 00:51:59;;;;;;;;;;;22.00;93.80;;;;;;5101600;28;19919;-90
2022/07/12 00:54:24;;;;;;;;;;;22.00;93.80;;;;;;5101359;28;20006;-91
2022/07/12 00:56:50;;;;;;;;;;;22.00;93.80;;;;;;5102107;28;19914;-90
2022/07/12 00:59:17;;;;;;;;;;;22.00;93.80;;;;;;5101915;28;20004;-91
2022/07/12 01:01:42;;;;;;;;;;;22.00;93.80;;;;;;5101067;28;19904;-91
2022/07/12 01:04:08;;;;;;;;;;;22.00;93.80;;;;;;5101102;28;19938;-91
2022/07/12 01:06:35;;;;;;;;;;;22.00;93.90;;;;;;5101102;28;20241;-90
2022/07/12 01:09:01;;;;;;;;;;;22.00;94.20;;;;;;5101486;28;20080;-90
2022/07/12 01:11:27;;;;;;;;;;;22.00;93.90;;;;;;5101404;28;19939;-90
2022/07/12 01:13:54;;;;;;;;;;;21.90;94.00;;;;;;5101997;28;20353;-90
2022/07/12 01:16:19;;;;;;;;;;;21.90;94.00;;;;;;5101144;28;19904;-90
2022/07/12 01:18:45;;;;;;;;;;;21.90;94.00;;;;;;5101247;28;19998;-91
2022/07/12 01:21:12;;;;;;;;;;;21.90;94.00;;;;;;5098951;28;19935;-90
2022/07/12 01:23:39;;;;;;;;;;;21.90;94.10;;;;;;5099453;28;19914;-90
2022/07/12 01:26:04;;;;;;;;;;;21.90;94.10;;;;;;5100253;28;19903;-91
2022/07/12 01:28:31;;;;;;;;;;;21.90;94.20;;;;;;5100817;28;19966;-91
2022/07/12 01:30:57;;;;;;;;;;;21.90;94.20;;;;;;5100477;28;19915;-91
2022/07/12 01:33:24;;;;;;;;;;;21.80;94.20;;;;;;5117855;28;20183;-90
2022/07/12 01:35:56;;;;;;;;;;;21.80;94.30;;;;;;5100497;28;19904;-91
2022/07/12 01:38:21;;;;;;;;;;;21.80;94.30;;;;;;5100662;28;19969;-91
2022/07/12 01:40:47;;;;;;;;;;;21.80;94.60;;;;;;5100460;28;19903;-90
2022/07/12 01:43:13;;;;;;;;;;;21.80;94.40;;;;;;5100917;28;20003;-91
2022/07/12 01:45:39;;;;;;;;;;;21.80;94.50;;;;;;5100845;28;20323;-91
2022/07/12 01:48:05;;;;;;;;;;;21.80;94.40;;;;;;5100323;28;19907;-90
2022/07/12 01:50:31;;;;;;;;;;;21.80;94.40;;;;;;5100481;28;19998;-90
2022/07/12 01:52:56;;;;;;;;;;;21.80;94.50;;;;;;5118041;28;19968;-90
2022/07/12 01:55:23;;;;;;;;;;;21.70;94.50;;;;;;5100572;28;19914;-90
2022/07/12 01:57:48;;;;;;;;;;;21.70;94.60;;;;;;5117339;28;19907;-90
2022/07/12 02:00:15;;;;;;;;;;;21.70;94.60;;;;;;5118081;28;19911;-91
2022/07/12 02:02:40;;;;;;;;;;;21.70;94.60;;;;;;5118409;28;19904;-90
2022/07/12 02:05:06;;;;;;;;;;;21.70;94.60;;;;;;5100710;28;19967;-91
2022/07/12 02:07:32;;;;;;;;;;;21.70;94.70;;;;;;5100480;28;19908;-91
2022/07/12 02:09:58;;;;;;;;;;;21.70;94.70;;;;;;5100140;28;20250;-90
2022/07/12 02:12:24;;;;;;;;;;;21.60;94.70;;;;;;5099583;28;19904;-90
2022/07/12 02:14:50;;;;;;;;;;;21.60;94.70;;;;;;5099325;28;19988;-90
2022/07/12 02:17:16;;;;;;;;;;;21.60;95.00;;;;;;5116684;28;19989;-90
2022/07/12 02:19:43;;;;;;;;;;;21.60;94.80;;;;;;5098619;28;19908;-91
2022/07/12 02:22:08;;;;;;;;;;;21.60;94.70;;;;;;5098229;28;19903;-91
2022/07/12 02:24:34;;;;;;;;;;;21.60;94.80;;;;;;5098743;28;19903;-90
2022/07/12 02:27:00;;;;;;;;;;;21.60;94.80;;;;;;5098053;28;19908;-91
2022/07/12 02:29:26;;;;;;;;;;;21.60;94.80;;;;;;5097895;28;19904;-91
2022/07/12 02:31:51;;;;;;;;;;;21.60;94.80;;;;;;5098342;28;19999;-91
2022/07/12 02:34:17;;;;;;;;;;;21.60;94.80;;;;;;5098335;28;20202;-91
2022/07/12 02:36:43;;;;;;;;;;;21.50;94.90;;;;;;5099056;28;19911;-91
2022/07/12 02:39:10;;;;;;;;;;;21.50;94.90;;;;;;5098902;28;19935;-91
2022/07/12 02:41:35;;;;;;;;;;;21.60;94.90;;;;;;5116339;28;19907;-91
2022/07/12 02:44:02;;;;;;;;;;;21.50;94.90;;;;;;5098030;28;19927;-91
2022/07/12 02:46:27;;;;;;;;;;;21.50;94.80;;;;;;5098094;28;19908;-91
2022/07/12 02:48:53;;;;;;;;;;;21.50;94.90;;;;;;5098463;28;19976;-91
2022/07/12 02:51:18;;;;;;;;;;;21.50;94.90;;;;;;5116690;28;20338;-90
2022/07/12 02:53:44;;;;;;;;;;;21.50;94.90;;;;;;5116491;28;19986;-90
2022/07/12 02:56:11;;;;;;;;;;;21.50;94.90;;;;;;5098135;28;20165;-90
2022/07/12 02:58:37;;;;;;;;;;;21.40;94.90;;;;;;5097984;28;19921;-90
2022/07/12 03:01:04;;;;;;;;;;;21.40;94.90;;;;;;5098212;28;20281;-90
2022/07/12 03:03:29;;;;;;;;;;;21.40;94.80;;;;;;5115507;28;20277;-90
2022/07/12 03:05:55;;;;;;;;;;;21.40;94.80;;;;;;5097742;28;19919;-90
2022/07/12 03:08:21;;;;;;;;;;;21.40;94.80;;;;;;5097655;28;19914;-90
2022/07/12 03:10:47;;;;;;;;;;;21.40;94.80;;;;;;5096540;28;20272;-90
2022/07/12 03:13:13;;;;;;;;;;;21.40;94.90;;;;;;5097799;28;20088;-90
2022/07/12 03:15:39;;;;;;;;;;;21.40;94.90;;;;;;5097492;28;19904;-90
2022/07/12 03:18:04;;;;;;;;;;;21.40;94.90;;;;;;5097716;28;19904;-90
2022/07/12 03:20:31;;;;;;;;;;;21.40;94.90;;;;;;5098217;28;19996;-90
2022/07/12 03:22:57;;;;;;;;;;;21.40;94.90;;;;;;5099804;28;19904;-91
2022/07/12 03:25:22;;;;;;;;;;;21.30;94.80;;;;;;5098477;28;19915;-91
2022/07/12 03:27:54;;;;;;;;;;;21.30;94.70;;;;;;5098473;28;19907;-91
2022/07/12 03:30:20;;;;;;;;;;;21.30;94.70;;;;;;5098586;28;19915;-91
2022/07/12 03:32:45;;;;;;;;;;;21.30;94.60;;;;;;5098515;28;19904;-91
2022/07/12 03:35:11;;;;;;;;;;;21.30;94.60;;;;;;5098614;28;19915;-91
2022/07/12 03:37:40;;;;;;;;;;;21.30;94.60;;;;;;5098008;28;19911;-91
2022/07/12 03:40:06;;;;;;;;;;;21.30;94.50;;;;;;5097841;28;19904;-91
2022/07/12 03:42:31;;;;;;;;;;;21.30;94.50;;;;;;5098197;28;20096;-91
2022/07/12 03:44:57;;;;;;;;;;;21.30;94.40;;;;;;5098430;28;19904;-91
2022/07/12 03:47:23;;;;;;;;;;;21.30;94.40;;;;;;5098182;28;19918;-91
2022/07/12 03:49:48;;;;;;;;;;;21.30;94.40;;;;;;5098162;28;19904;-91
2022/07/12 03:52:14;;;;;;;;;;;21.30;94.40;;;;;;5097912;28;19904;-91
2022/07/12 03:54:39;;;;;;;;;;;21.30;94.40;;;;;;5098168;28;19908;-91
2022/07/12 03:57:14;;;;;;;;;;;21.30;94.30;;;;;;5098724;28;19904;-91
2022/07/12 03:59:40;;;;;;;;;;;21.30;94.30;;;;;;5098434;28;20200;-91
2022/07/12 04:02:06;;;;;;;;;;;21.30;94.20;;;;;;5097736;28;19915;-91
2022/07/12 04:04:31;;;;;;;;;;;21.30;94.40;;;;;;5098495;28;19907;-91
2022/07/12 04:06:57;;;;;;;;;;;21.30;94.10;;;;;;5114784;28;19907;-91
2022/07/12 04:09:23;;;;;;;;;;;21.30;94.00;;;;;;5098297;28;19915;-91
2022/07/12 04:11:49;;;;;;;;;;;21.30;94.10;;;;;;5097078;28;19999;-91
2022/07/12 04:14:14;;;;;;;;;;;21.30;94.10;;;;;;5097534;28;20267;-91
2022/07/12 04:16:40;;;;;;;;;;;21.30;94.10;;;;;;5097044;28;19989;-91
2022/07/12 04:19:08;;;;;;;;;;;21.30;94.10;;;;;;5097522;28;19904;-91
2022/07/12 04:21:37;;;;;;;;;;;21.30;94.10;;;;;;5097426;28;19965;-91
2022/07/12 04:24:04;;;;;;;;;;;21.30;94.20;;;;;;5097110;28;19904;-91
2022/07/12 04:26:29;;;;;;;;;;;21.30;94.10;;;;;;5095625;28;19920;-91
2022/07/12 04:28:55;;;;;;;;;;;21.30;94.20;;;;;;5096223;28;19908;-91
2022/07/12 04:31:21;;;;;;;;;;;21.30;94.20;;;;;;5093851;28;20376;-91
2022/07/12 04:33:46;;;;;;;;;;;21.40;94.20;;;;;;5095007;28;19919;-91
2022/07/12 04:36:12;;;;;;;;;;;21.40;94.10;;;;;;5098685;28;19936;-91
2022/07/12 04:38:38;;;;;;;;;;;21.40;94.10;;;;;;5098224;28;19904;-91
2022/07/12 04:41:03;;;;;;;;;;;21.40;94.00;;;;;;5097959;28;19911;-91
2022/07/12 04:43:29;;;;;;;;;;;21.40;94.00;;;;;;5096721;28;19926;-91
2022/07/12 04:45:55;;;;;;;;;;;21.50;94.00;;;;;;5098424;28;19910;-91
2022/07/12 04:48:21;;;;;;;;;;;21.50;93.90;;;;;;5098416;28;19908;-90
2022/07/12 04:50:47;;;;;;;;;;;21.50;94.00;;;;;;5098314;28;20370;-90
2022/07/12 04:53:12;;;;;;;;;;;21.50;93.60;;;;;;5097963;28;19955;-91
2022/07/12 04:55:38;;;;;;;;;;;21.60;93.70;;;;;;5097259;28;19968;-90
2022/07/12 04:58:04;;;;;;;;;;;21.60;93.60;;;;;;5098009;28;19915;-91
2022/07/12 05:00:30;;;;;;;;;;;21.60;93.60;;;;;;5097885;28;19904;-91
2022/07/12 05:02:56;;;;;;;;;;;21.60;93.50;;;;;;5097647;28;20204;-91
2022/07/12 05:05:21;;;;;;;;;;;21.70;93.20;;;;;;5096344;28;19926;-91
2022/07/12 05:07:47;;;;;;;;;;;21.70;93.90;;;;;;5097690;28;20257;-90
2022/07/12 05:10:13;;;;;;;;;;;21.70;93.30;;;;;;5097006;28;19914;-90
2022/07/12 05:12:39;;;;;;;;;;;21.80;93.30;;;;;;5097596;28;19908;-91
2022/07/12 05:15:05;;;;;;;;;;;21.80;93.20;;;;;;5097626;28;19986;-91
2022/07/12 05:17:31;;;;;;;;;;;21.90;93.00;;;;;;5097910;28;20155;-91
2022/07/12 05:19:56;;;;;;;;;;;21.90;92.80;;;;;;5096785;28;20037;-91
2022/07/12 05:22:22;;;;;;;;;;;22.00;92.70;;;;;;5097830;28;19968;-91
2022/07/12 05:24:47;;;;;;;;;;;22.00;94.60;;;;;;5097381;28;20301;-91
2022/07/12 05:27:14;;;;;;;;;;;22.00;92.70;;;;;;5098303;28;19908;-91
2022/07/12 05:29:39;;;;;;;;;;;22.10;92.50;;;;;;5096804;28;19943;-91
2022/07/12 05:32:05;;;;;;;;;;;22.10;92.40;;;;;;5097116;28;19962;-91
2022/07/12 05:34:31;;;;;;;;;;;22.20;92.10;;;;;;5097521;28;19912;-91
2022/07/12 05:36:56;;;;;;;;;;;22.30;91.90;;;;;;5097410;28;19904;-91
2022/07/12 05:39:22;;;;;;;;;;;22.40;91.70;;;;;;5097173;28;20018;-91
2022/07/12 05:41:47;;;;;;;;;;;22.40;91.40;;;;;;5095907;28;19911;-91
2022/07/12 05:44:13;;;;;;;;;;;22.50;91.10;;;;;;5115324;28;19907;-91
2022/07/12 05:46:40;;;;;;;;;;;22.60;91.00;;;;;;5096394;28;20012;-91
2022/07/12 05:49:06;;;;;;;;;;;22.70;90.70;;;;;;5097392;28;20014;-91
2022/07/12 05:54:16;;;;;;;;;;;22.80;90.40;;;;;;5114499;28;19911;-91
2022/07/12 05:56:42;;;;;;;;;;;22.90;90.00;;;;;;5096659;28;19903;-91
2022/07/12 05:59:08;;;;;;;;;;;23.00;89.70;;;;;;5096526;28;20325;-91
2022/07/12 06:01:33;;;;;;;;;;;23.10;89.40;;;;;;5096084;28;19903;-91
2022/07/12 06:03:59;;;;;;;;;;;23.20;89.50;;;;;;5095421;28;19904;-91
2022/07/12 06:06:25;;;;;;;;;;;23.20;88.80;;;;;;5096767;28;19967;-91
2022/07/12 06:08:50;;;;;;;;;;;23.40;87.70;;;;;;5097179;28;19912;-91
2022/07/12 06:11:16;;;;;;;;;;;23.50;87.20;;;;;;5096353;28;19903;-91
2022/07/12 06:13:42;;;;;;;;;;;23.60;86.20;;;;;;5095890;28;19908;-91
2022/07/12 06:16:10;;;;;;;;;;;23.70;85.80;;;;;;5096117;28;19912;-91
2022/07/12 06:18:35;;;;;;;;;;;23.90;85.30;;;;;;5096607;28;20303;-91
2022/07/12 06:21:01;;;;;;;;;;;24.00;83.80;;;;;;5096332;28;20021;-91
2022/07/12 06:23:26;;;;;;;;;;;24.10;81.50;;;;;;5094581;28;19954;-91
2022/07/12 06:25:52;;;;;;;;;;;24.20;80.40;;;;;;5095299;28;19911;-91
2022/07/12 06:28:18;;;;;;;;;;;24.30;80.10;;;;;;5095976;28;19907;-91
2022/07/12 06:30:43;;;;;;;;;;;24.40;79.70;;;;;;5095683;28;19911;-91
2022/07/12 06:33:09;;;;;;;;;;;24.50;79.00;;;;;;5113563;28;19918;-91
2022/07/12 06:35:35;;;;;;;;;;;24.70;77.70;;;;;;5095337;28;19908;-91
2022/07/12 06:38:01;;;;;;;;;;;24.80;77.40;;;;;;5095400;28;20020;-91
2022/07/12 06:40:26;;;;;;;;;;;24.90;76.40;;;;;;5113178;28;20285;-91
2022/07/12 06:42:52;;;;;;;;;;;25.00;75.00;;;;;;5095101;28;19903;-91
2022/07/12 06:45:18;;;;;;;;;;;25.10;75.00;;;;;;5095908;28;19968;-91
2022/07/12 06:47:44;;;;;;;;;;;25.20;74.80;;;;;;5095432;28;19954;-91
2022/07/12 06:50:10;;;;;;;;;;;25.30;73.70;;;;;;5095105;28;19967;-91
2022/07/12 06:52:35;;;;;;;;;;;25.50;72.70;;;;;;5094922;28;20292;-91
2022/07/12 06:55:01;;;;;;;;;;;25.60;72.10;;;;;;5095008;28;20000;-90
2022/07/12 06:57:27;;;;;;;;;;;25.70;71.10;;;;;;5093820;28;20285;-91
2022/07/12 06:59:53;;;;;;;;;;;25.90;70.60;;;;;;5093937;28;19908;-91
2022/07/12 07:02:18;;;;;;;;;;;26.00;70.30;;;;;;5094456;28;20189;-91
2022/07/12 07:04:44;;;;;;;;;;;26.10;68.60;;;;;;5094593;28;19929;-91
2022/07/12 07:07:09;;;;;;;;;;;26.20;68.20;;;;;;5094202;28;19907;-91
2022/07/12 07:09:35;;;;;;;;;;;26.40;67.70;;;;;;5094100;28;19914;-91
2022/07/12 07:12:01;;;;;;;;;;;26.80;66.70;;;;;;5094532;28;19904;-91
2022/07/12 07:14:27;;;;;;;;;;;27.10;65.40;;;;;;5095245;28;19904;-91
2022/07/12 07:16:53;;;;;;;;;;;27.70;63.00;;;;;;5094085;28;19943;-91
2022/07/12 07:19:19;;;;;;;;;;;28.10;60.50;;;;;;5094769;28;19914;-91
2022/07/12 07:21:45;;;;;;;;;;;28.70;59.20;;;;;;5094266;28;20005;-92
2022/07/12 07:24:10;;;;;;;;;;;29.00;58.20;;;;;;5094623;28;19904;-91
2022/07/12 07:26:36;;;;;;;;;;;29.40;57.40;;;;;;5092560;28;19914;-91
2022/07/12 07:31:46;;;;;;;;;;;30.10;55.90;;;;;;5110352;28;19931;-92
2022/07/12 07:34:12;;;;;;;;;;;30.40;55.00;;;;;;5092734;28;20281;-92
2022/07/12 07:36:37;;;;;;;;;;;30.80;54.40;;;;;;5093471;28;20186;-91
2022/07/12 07:39:03;;;;;;;;;;;31.10;53.80;;;;;;5093597;28;20082;-91
2022/07/12 07:41:29;;;;;;;;;;;31.50;53.20;;;;;;5092974;28;19908;-92
2022/07/12 07:43:54;;;;;;;;;;;31.60;52.80;;;;;;5093780;28;20075;-91
2022/07/12 07:46:20;;;;;;;;;;;31.90;52.40;;;;;;5093219;28;20251;-91
2022/07/12 07:48:46;;;;;;;;;;;32.20;52.20;;;;;;5109518;28;19986;-92
2022/07/12 07:51:11;;;;;;;;;;;32.40;51.40;;;;;;5092632;28;19911;-91
2022/07/12 07:53:37;;;;;;;;;;;32.60;51.20;;;;;;5092480;28;20142;-91
2022/07/12 07:56:03;;;;;;;;;;;32.80;50.80;;;;;;5092658;28;19903;-91
2022/07/12 07:58:28;;;;;;;;;;;32.80;50.70;;;;;;5093769;28;19904;-91
2022/07/12 08:00:54;;;;;;;;;;;32.90;50.70;;;;;;5093113;28;19903;-91
2022/07/12 08:03:20;;;;;;;;;;;32.90;50.50;;;;;;5093780;28;20276;-91
2022/07/12 08:05:46;;;;;;;;;;;32.50;50.80;;;;;;5093601;28;19908;-91
2022/07/12 08:08:11;;;;;;;;;;;32.40;51.10;;;;;;5093126;28;19966;-91
2022/07/12 08:10:37;;;;;;;;;;;32.40;51.10;;;;;;5095657;28;19904;-91
2022/07/12 08:13:03;;;;;;;;;;;32.70;50.70;;;;;;5098288;28;19910;-91
2022/07/12 08:15:29;;;;;;;;;;;32.70;51.10;;;;;;5099874;28;19966;-91
2022/07/12 08:17:55;;;;;;;;;;;32.80;51.30;;;;;;5097442;28;19908;-91
2022/07/12 08:20:23;;;;;;;;;;;33.00;50.60;;;;;;5097808;28;19960;-92
2022/07/12 08:22:48;;;;;;;;;;;33.30;50.40;;;;;;5097070;28;19998;-91
2022/07/12 08:25:14;;;;;;;;;;;33.40;50.10;;;;;;5114320;28;20010;-91
2022/07/12 08:27:40;;;;;;;;;;;33.40;49.90;;;;;;5096608;28;20006;-92
2022/07/12 08:30:06;;;;;;;;;;;33.50;49.80;;;;;;5096947;28;19912;-91
2022/07/12 08:32:32;;;;;;;;;;;33.50;49.50;;;;;;5096180;28;19911;-90
2022/07/12 08:34:57;;;;;;;;;;;33.80;49.50;;;;;;5096320;28;19911;-91
2022/07/12 08:37:23;;;;;;;;;;;33.80;49.20;;;;;;5096388;28;19968;-91
2022/07/12 08:39:49;;;;;;;;;;;33.80;49.20;;;;;;5113090;28;20259;-91
2022/07/12 08:42:16;;;;;;;;;;;33.80;49.30;;;;;;5094480;28;19933;-92
2022/07/12 08:44:42;;;;;;;;;;;33.70;49.30;;;;;;5096037;28;20002;-91
2022/07/12 08:47:08;;;;;;;;;;;33.80;49.20;;;;;;5095482;28;19935;-91
2022/07/12 08:49:34;;;;;;;;;;;33.90;49.20;;;;;;5095589;28;19915;-91
2022/07/12 08:51:59;;;;;;;;;;;34.00;49.00;;;;;;5095036;28;20250;-91
2022/07/12 08:54:25;;;;;;;;;;;34.10;49.00;;;;;;5094400;28;19903;-91
2022/07/12 08:56:50;;;;;;;;;;;34.20;49.00;;;;;;5094140;28;20163;-91
2022/07/12 08:59:20;;;;;;;;;;;34.10;49.00;;;;;;5095425;28;19915;-91
2022/07/12 09:01:47;;;;;;;;;;;34.00;49.10;;;;;;5096116;28;20022;-91
2022/07/12 09:04:17;;;;;;;;;;;33.90;49.00;;;;;;5093657;28;19926;-91
2022/07/12 09:06:43;;;;;;;;;;;33.80;49.20;;;;;;5094656;28;19918;-91
2022/07/12 09:09:09;;;;;;;;;;;33.50;49.40;;;;;;5094311;28;19903;-91
2022/07/12 09:11:36;;;;;;;;;;;33.00;49.80;;;;;;5095165;28;19925;-91
2022/07/12 09:14:02;;;;;;;;;;;32.50;50.20;;;;;;5094315;28;19998;-91
2022/07/12 09:16:28;;;;;;;;;;;32.10;50.60;;;;;;5094723;28;20048;-91
2022/07/12 09:19:13;;;;;;;;;;;31.90;51.00;;;;;;5094096;28;19914;-91
2022/07/12 09:21:45;;;;;;;;;;;31.60;51.20;;;;;;5094500;28;19911;-92
2022/07/12 09:24:11;;;;;;;;;;;31.30;51.50;;;;;;5093755;28;20094;-91
2022/07/12 09:26:37;;;;;;;;;;;31.00;51.90;;;;;;5094435;28;19903;-91
2022/07/12 09:29:07;;;;;;;;;;;30.80;52.50;;;;;;5094128;28;20143;-91
2022/07/12 09:36:06;;;;;;;;;;;30.70;52.60;;;;;;5095185;28;19904;-92
2022/07/12 09:37:12;;;;;;;;;;;30.70;52.60;;;;;;5112300;28;19972;-91
2022/07/12 09:39:38;;;;;;;;;;;30.60;52.70;;;;;;5093712;28;19965;-91
2022/07/12 09:42:06;;;;;;;;;;;30.60;52.80;;;;;;5111778;28;20113;-91
2022/07/12 09:44:33;;;;;;;;;;;30.50;52.80;;;;;;5094411;28;19964;-91
2022/07/12 09:47:00;;;;;;;;;;;30.50;53.40;;;;;;5093621;28;19914;-91
2022/07/12 09:49:26;;;;;;;;;;;30.40;53.10;;;;;;5095050;28;20085;-91
2022/07/12 09:51:54;;;;;;;;;;;30.30;53.20;;;;;;5096538;28;19912;-91
2022/07/12 09:54:23;;;;;;;;;;;30.30;53.40;;;;;;5094034;28;20016;-91
2022/07/12 09:56:52;;;;;;;;;;;30.30;53.40;;;;;;5093004;28;19951;-91
2022/07/12 09:59:19;;;;;;;;;;;30.30;53.50;;;;;;5093951;28;19904;-91
2022/07/12 10:01:46;;;;;;;;;;;30.30;53.70;;;;;;5093367;28;20200;-91
2022/07/12 10:04:14;;;;;;;;;;;30.20;53.70;;;;;;5093958;28;19914;-91
2022/07/12 10:06:40;;;;;;;;;;;30.20;53.70;;;;;;5091903;28;19948;-90
2022/07/12 10:09:06;;;;;;;;;;;30.20;53.90;;;;;;5094358;28;19988;-92
2022/07/12 10:11:32;;;;;;;;;;;30.20;54.00;;;;;;5093547;28;20196;-91
2022/07/12 10:13:58;;;;;;;;;;;30.20;54.20;;;;;;5093310;28;19907;-91
2022/07/12 10:16:25;;;;;;;;;;;30.20;54.20;;;;;;5092619;28;19903;-92
2022/07/12 10:19:11;;;;;;;;;;;30.20;54.20;;;;;;5091793;28;19919;-91
2022/07/12 10:21:40;;;;;;;;;;;30.20;54.30;;;;;;5074951;28;19994;-91
2022/07/12 10:24:25;;;;;;;;;;;30.20;54.20;;;;;;5091350;28;19904;-92
2022/07/12 10:26:51;;;;;;;;;;;30.20;54.20;;;;;;5092058;28;20182;-91
2022/07/12 10:29:19;;;;;;;;;;;30.20;54.20;;;;;;5093488;28;19903;-91
2022/07/12 10:31:46;;;;;;;;;;;30.20;54.10;;;;;;5091048;28;19903;-91
2022/07/12 10:34:22;;;;;;;;;;;30.10;54.00;;;;;;5092561;28;19998;-91
2022/07/12 10:36:54;;;;;;;;;;;30.10;54.00;;;;;;5093000;28;20281;-91
2022/07/12 10:39:20;;;;;;;;;;;30.10;54.00;;;;;;5093420;28;19951;-91
2022/07/12 10:42:07;;;;;;;;;;;30.00;54.20;;;;;;5091360;28;19998;-91
2022/07/12 10:44:44;;;;;;;;;;;29.90;54.30;;;;;;5093277;28;19911;-91
2022/07/12 10:47:12;;;;;;;;;;;29.80;54.40;;;;;;5108706;28;20330;-92
2022/07/12 10:49:42;;;;;;;;;;;29.80;54.30;;;;;;5091699;28;20194;-92
2022/07/12 10:52:11;;;;;;;;;;;29.80;54.50;;;;;;5091230;28;20240;-91
2022/07/12 10:54:37;;;;;;;;;;;29.80;54.70;;;;;;5111437;28;20235;-92
2022/07/12 10:57:03;;;;;;;;;;;29.80;54.70;;;;;;5091448;28;19934;-91
2022/07/12 10:59:29;;;;;;;;;;;29.70;54.80;;;;;;5090986;28;20091;-92
2022/07/12 11:01:55;;;;;;;;;;;29.70;55.10;;;;;;5089396;28;19911;-91
2022/07/12 11:04:21;;;;;;;;;;;29.70;55.10;;;;;;5091004;28;20056;-91
2022/07/12 11:06:47;;;;;;;;;;;29.70;55.10;;;;;;5109704;28;19919;-91
2022/07/12 11:09:13;;;;;;;;;;;29.70;55.10;;;;;;5091196;28;20002;-91
2022/07/12 11:11:48;;;;;;;;;;;29.70;55.10;;;;;;5092099;28;19980;-91
2022/07/12 11:14:29;;;;;;;;;;;29.70;55.10;;;;;;5108310;28;19903;-92
2022/07/12 11:16:56;;;;;;;;;;;29.70;55.30;;;;;;5091053;28;19903;-91
2022/07/12 11:19:23;;;;;;;;;;;29.70;55.30;;;;;;5090281;28;20200;-91
2022/07/12 11:21:54;;;;;;;;;;;29.70;55.30;;;;;;5091911;28;19904;-90
2022/07/12 11:24:21;;;;;;;;;;;29.70;55.30;;;;;;5107706;28;20167;-91
2022/07/12 11:26:47;;;;;;;;;;;29.60;55.30;;;;;;5091416;28;19942;-91
2022/07/12 11:29:13;;;;;;;;;;;29.60;55.30;;;;;;5090865;28;20002;-90
2022/07/12 11:31:38;;;;;;;;;;;29.60;55.40;;;;;;5091607;28;19990;-91
2022/07/12 11:34:04;;;;;;;;;;;29.60;55.50;;;;;;5090373;28;20164;-91
2022/07/12 11:36:30;;;;;;;;;;;29.60;55.50;;;;;;5109043;28;19911;-91
2022/07/12 11:38:56;;;;;;;;;;;29.60;56.00;;;;;;5091266;28;20320;-91
2022/07/12 11:41:23;;;;;;;;;;;29.60;55.60;;;;;;5090800;28;19922;-92
2022/07/12 11:43:49;;;;;;;;;;;29.60;55.50;;;;;;5090579;28;19908;-91
2022/07/12 11:46:15;;;;;;;;;;;29.60;55.70;;;;;;5081373;28;19930;-92
2022/07/12 11:48:41;;;;;;;;;;;29.50;55.70;;;;;;5085561;28;19919;-91
2022/07/12 11:51:08;;;;;;;;;;;29.50;55.70;;;;;;5115749;28;19904;-92
2022/07/12 11:53:35;;;;;;;;;;;29.50;55.70;;;;;;5114827;28;19962;-92
2022/07/12 11:56:01;;;;;;;;;;;29.40;55.70;;;;;;5115843;28;19908;-92
2022/07/12 11:58:28;;;;;;;;;;;29.50;55.70;;;;;;5115372;28;19914;-92
2022/07/12 12:00:54;;;;;;;;;;;29.50;56.00;;;;;;5115490;28;20410;-91
2022/07/12 12:03:21;;;;;;;;;;;29.50;55.70;;;;;;5110196;28;19904;-92
2022/07/12 12:05:48;;;;;;;;;;;29.50;55.70;;;;;;5108166;28;20231;-92
2022/07/12 12:08:14;;;;;;;;;;;29.40;55.60;;;;;;5109494;28;19908;-91
2022/07/12 12:10:41;;;;;;;;;;;29.40;55.50;;;;;;5109450;28;19904;-92
2022/07/12 12:13:12;;;;;;;;;;;29.40;55.60;;;;;;5108807;28;19957;-92
2022/07/12 12:15:38;;;;;;;;;;;29.40;55.60;;;;;;5111885;28;19904;-92
2022/07/12 12:18:04;;;;;;;;;;;29.40;55.70;;;;;;5089807;28;20189;-92
2022/07/12 12:20:31;;;;;;;;;;;29.40;55.70;;;;;;5100451;28;19903;-92
2022/07/12 12:22:58;;;;;;;;;;;29.40;55.70;;;;;;5101521;28;19904;-92
2022/07/12 12:25:25;;;;;;;;;;;29.40;55.70;;;;;;5101422;28;19904;-92
2022/07/12 12:27:55;;;;;;;;;;;29.40;55.80;;;;;;5100617;28;20292;-92
2022/07/12 12:30:21;;;;;;;;;;;29.30;55.80;;;;;;5104211;28;19965;-92
2022/07/12 12:32:52;;;;;;;;;;;29.30;55.80;;;;;;5100441;28;19903;-92
2022/07/12 12:35:37;;;;;;;;;;;29.40;55.80;;;;;;5098017;28;19908;-94
2022/07/12 12:38:10;;;;;;;;;;;29.30;55.70;;;;;;5094202;28;19926;-91
2022/07/12 12:40:37;;;;;;;;;;;29.30;55.60;;;;;;5094589;28;19983;-92
2022/07/12 12:43:12;;;;;;;;;;;29.30;55.70;;;;;;5094273;28;19904;-92
2022/07/12 12:45:51;;;;;;;;;;;29.30;55.70;;;;;;5093215;28;19908;-92
2022/07/12 12:48:23;;;;;;;;;;;29.30;56.20;;;;;;5094046;28;20296;-93
2022/07/12 12:50:50;;;;;;;;;;;29.30;55.90;;;;;;5095563;28;19911;-92
2022/07/12 12:53:17;;;;;;;;;;;29.30;56.00;;;;;;5093005;28;19904;-92
2022/07/12 12:55:43;;;;;;;;;;;29.20;56.00;;;;;;5092827;28;19914;-91
2022/07/12 12:58:09;;;;;;;;;;;29.20;55.90;;;;;;5095249;28;19907;-92
2022/07/12 13:00:40;;;;;;;;;;;29.30;55.90;;;;;;5095491;28;20189;-92
2022/07/12 13:03:06;;;;;;;;;;;29.30;56.00;;;;;;5094499;28;20056;-92
2022/07/12 13:05:32;;;;;;;;;;;29.30;56.10;;;;;;5092970;28;19961;-93
2022/07/12 13:07:57;;;;;;;;;;;29.30;56.10;;;;;;5090005;28;19911;-92
2022/07/12 13:10:23;;;;;;;;;;;29.20;56.20;;;;;;5082147;28;19918;-92
2022/07/12 13:12:50;;;;;;;;;;;29.30;56.20;;;;;;5088773;28;19926;-91
2022/07/12 13:15:16;;;;;;;;;;;29.30;56.00;;;;;;5098862;28;19930;-91
2022/07/12 13:17:41;;;;;;;;;;;29.30;55.20;;;;;;5099308;28;19916;-92
2022/07/12 13:20:08;;;;;;;;;;;29.30;55.00;;;;;;5094592;28;19904;-92
2022/07/12 13:22:33;;;;;;;;;;;29.30;55.50;;;;;;5079187;28;19904;-93
2022/07/12 13:24:59;;;;;;;;;;;29.30;55.80;;;;;;5096628;28;19904;-92
2022/07/12 13:27:26;;;;;;;;;;;29.30;55.80;;;;;;5078901;28;19908;-92
2022/07/12 13:29:52;;;;;;;;;;;29.30;55.70;;;;;;5078982;28;19912;-92
2022/07/12 13:32:18;;;;;;;;;;;29.20;50.10;;;;;;5079119;28;19985;-92
2022/07/12 13:34:47;;;;;;;;;;;29.30;53.20;;;;;;5061412;28;19920;-91
2022/07/12 13:37:12;;;;;;;;;;;29.30;53.90;;;;;;5079508;28;20464;-92
2022/07/12 13:42:23;;;;;;;;;;;29.30;55.20;;;;;;5096448;28;19961;-92
2022/07/12 13:44:48;;;;;;;;;;;29.30;54.10;;;;;;5078797;28;19908;-92
2022/07/12 13:47:14;;;;;;;;;;;29.40;52.80;;;;;;5077797;28;20204;-92
2022/07/12 13:49:39;;;;;;;;;;;29.40;54.20;;;;;;5078764;28;20008;-91
2022/07/12 13:52:05;;;;;;;;;;;29.40;54.50;;;;;;5078620;28;19904;-91
2022/07/12 13:54:31;;;;;;;;;;;29.40;54.80;;;;;;5075442;28;19914;-92
2022/07/12 13:56:57;;;;;;;;;;;29.40;55.10;;;;;;5072176;28;19904;-94
2022/07/12 13:59:22;;;;;;;;;;;29.40;55.00;;;;;;5072070;28;19904;-91
2022/07/12 14:01:48;;;;;;;;;;;29.40;55.00;;;;;;5072794;28;19904;-92
2022/07/12 14:04:29;;;;;;;;;;;29.40;54.60;;;;;;5074592;28;19904;-92
2022/07/12 14:06:55;;;;;;;;;;;29.40;55.10;;;;;;5069273;28;20142;-93
2022/07/12 14:09:21;;;;;;;;;;;29.40;52.10;;;;;;5075937;28;20022;-93
2022/07/12 14:11:47;;;;;;;;;;;29.40;53.70;;;;;;5078642;28;19904;-93
2022/07/12 14:14:13;;;;;;;;;;;29.50;53.70;;;;;;5076543;28;19908;-93
2022/07/12 14:16:38;;;;;;;;;;;29.50;54.60;;;;;;5076103;28;20379;-92
2022/07/12 14:19:04;;;;;;;;;;;29.50;55.00;;;;;;5073613;28;19904;-94
2022/07/12 14:21:29;;;;;;;;;;;29.50;55.10;;;;;;5076782;28;19904;-93
2022/07/12 14:24:00;;;;;;;;;;;29.40;55.20;;;;;;5074535;28;19904;-93